createdAt,value
2022-11-04T00:00:54.040Z,99088.00
2022-11-04T00:03:23.185Z,99090.00
2022-11-04T00:05:52.267Z,99093.00
2022-11-04T00:08:27.365Z,99103.00
2022-11-04T00:11:15.880Z,99104.00
2022-11-04T00:13:44.899Z,99109.00
2022-11-04T00:16:33.779Z,99105.00
2022-11-04T00:19:04.562Z,99107.00
2022-11-04T00:21:52.208Z,99112.00
2022-11-04T00:24:39.417Z,99114.00
2022-11-04T00:27:33.379Z,99122.00
2022-11-04T00:30:03.171Z,99125.00
2022-11-04T00:32:52.453Z,99123.00
2022-11-04T00:35:22.651Z,99127.00
2022-11-04T00:37:51.727Z,99128.00
2022-11-04T00:40:20.936Z,99141.00
2022-11-04T00:42:49.974Z,99133.00
2022-11-04T00:45:19.093Z,99142.00
2022-11-04T00:47:48.184Z,99146.00
2022-11-04T00:50:17.321Z,99146.00
2022-11-04T00:52:46.374Z,99149.00
2022-11-04T00:55:15.548Z,99155.00
2022-11-04T00:57:44.676Z,99158.00
2022-11-04T01:00:15.273Z,99165.00
2022-11-04T01:02:44.498Z,99176.00
2022-11-04T01:05:13.710Z,99171.00
2022-11-04T01:07:43.902Z,99173.00
2022-11-04T01:10:13.238Z,99170.00
2022-11-04T01:12:42.458Z,99174.00
2022-11-04T01:15:12.257Z,99177.00
2022-11-04T01:17:41.297Z,99173.00
2022-11-04T01:20:11.177Z,99179.00
2022-11-04T01:22:40.263Z,99183.00
2022-11-04T01:25:12.890Z,99177.00
2022-11-04T01:27:42.007Z,99192.00
2022-11-04T01:30:12.578Z,99190.00
2022-11-04T01:32:41.924Z,99190.00
2022-11-04T01:35:14.105Z,99186.00
2022-11-04T01:37:46.471Z,99190.00
2022-11-04T01:40:15.667Z,99197.00
2022-11-04T01:42:44.716Z,99196.00
2022-11-04T01:45:21.184Z,99196.00
2022-11-04T01:48:15.325Z,99199.00
2022-11-04T01:50:44.574Z,99198.00
2022-11-04T01:53:35.776Z,99205.00
2022-11-04T01:56:13.081Z,99208.00
2022-11-04T01:58:52.533Z,99208.00
2022-11-04T02:01:22.332Z,99210.00
2022-11-04T02:04:19.554Z,99205.00
2022-11-04T02:06:51.144Z,99218.00
2022-11-04T02:09:22.423Z,99215.00
2022-11-04T02:12:09.755Z,99222.00
2022-11-04T02:14:39.410Z,99222.00
2022-11-04T02:17:30.576Z,99219.00
2022-11-04T02:20:28.027Z,99224.00
2022-11-04T02:23:44.448Z,99226.00
2022-11-04T02:27:05.300Z,99221.00
2022-11-04T02:30:13.856Z,99237.00
2022-11-04T02:33:18.689Z,99231.00
2022-11-04T02:36:04.394Z,99232.00
2022-11-04T02:39:11.322Z,99227.00
2022-11-04T02:42:01.993Z,99232.00
2022-11-04T02:44:59.996Z,99232.00
2022-11-04T02:47:33.677Z,99221.00
2022-11-04T02:50:15.113Z,99226.00
2022-11-04T02:53:02.938Z,99227.00
2022-11-04T02:55:46.532Z,99233.00
2022-11-04T02:58:40.053Z,99225.00
2022-11-04T03:01:15.210Z,99227.00
2022-11-04T03:03:52.409Z,99227.00
2022-11-04T03:06:26.544Z,99227.00
2022-11-04T03:08:58.570Z,99222.00
2022-11-04T03:11:29.700Z,99216.00
2022-11-04T03:14:35.536Z,99216.00
2022-11-04T03:17:15.307Z,99209.00
2022-11-04T03:20:01.221Z,99207.00
2022-11-04T03:22:38.699Z,99203.00
2022-11-04T03:25:10.396Z,99201.00
2022-11-04T03:28:01.040Z,99199.00
2022-11-04T03:30:48.437Z,99195.00
2022-11-04T03:33:28.325Z,99195.00
2022-11-04T03:35:57.871Z,99188.00
2022-11-04T03:38:27.321Z,99179.00
2022-11-04T03:40:56.518Z,99183.00
2022-11-04T03:43:30.168Z,99181.00
2022-11-04T03:45:59.669Z,99182.00
2022-11-04T03:48:29.662Z,99170.00
2022-11-04T03:50:59.890Z,99159.00
2022-11-04T03:53:30.894Z,99151.00
2022-11-04T03:56:29.943Z,99144.00
2022-11-04T03:59:30.416Z,99150.00
2022-11-04T04:02:11.470Z,99147.00
2022-11-04T04:05:23.118Z,99143.00
2022-11-04T04:08:16.812Z,99130.00
2022-11-04T04:11:09.370Z,99132.00
2022-11-04T04:14:07.652Z,99131.00
2022-11-04T04:16:45.178Z,99130.00
2022-11-04T04:19:22.741Z,99118.00
2022-11-04T04:22:19.831Z,99120.00
2022-11-04T04:25:13.420Z,99114.00
2022-11-04T04:27:44.123Z,99108.00
2022-11-04T04:30:17.426Z,99105.00
2022-11-04T04:33:16.772Z,99110.00
2022-11-04T04:35:58.693Z,99097.00
2022-11-04T04:38:50.091Z,99101.00
2022-11-04T04:41:51.864Z,99094.00
2022-11-04T04:44:45.948Z,99087.00
2022-11-04T04:47:25.911Z,99089.00
2022-11-04T04:50:01.452Z,99091.00
2022-11-04T04:52:43.134Z,99078.00
2022-11-04T04:55:14.141Z,99071.00
2022-11-04T04:57:43.615Z,99080.00
2022-11-04T05:00:18.939Z,99078.00
2022-11-04T05:02:49.483Z,99070.00
2022-11-04T05:05:20.351Z,99063.00
2022-11-04T05:07:49.873Z,99056.00
2022-11-04T05:10:19.714Z,99054.00
2022-11-04T05:13:06.999Z,99047.00
2022-11-04T05:15:36.813Z,99036.00
2022-11-04T05:18:06.439Z,99030.00
2022-11-04T05:20:39.219Z,99029.00
2022-11-04T05:23:09.539Z,99025.00
2022-11-04T05:25:40.664Z,99019.00
2022-11-04T05:28:11.276Z,99008.00
2022-11-04T05:30:41.060Z,99005.00
2022-11-04T05:33:10.357Z,99005.00
2022-11-04T05:35:39.680Z,98999.00
2022-11-04T05:38:08.876Z,98992.00
2022-11-04T05:40:38.163Z,98991.00
2022-11-04T05:43:09.182Z,98986.00
2022-11-04T05:45:38.558Z,98977.00
2022-11-04T05:48:07.843Z,98979.00
2022-11-04T05:50:36.979Z,98978.00
2022-11-04T05:53:06.334Z,98968.00
2022-11-04T05:55:35.587Z,98962.00
2022-11-04T05:58:04.719Z,98957.00
2022-11-04T06:00:33.887Z,98954.00
2022-11-04T06:03:03.204Z,98952.00
2022-11-04T06:05:33.134Z,98950.00
2022-11-04T06:08:02.419Z,98940.00
2022-11-04T06:10:31.486Z,98940.00
2022-11-04T06:13:00.618Z,98939.00
2022-11-04T06:15:29.743Z,98930.00
2022-11-04T06:17:59.067Z,98930.00
2022-11-04T06:20:28.189Z,98934.00
2022-11-04T06:22:57.278Z,98921.00
2022-11-04T06:25:26.481Z,98919.00
2022-11-04T06:27:55.536Z,98914.00
2022-11-04T06:30:24.656Z,98913.00
2022-11-04T06:32:53.863Z,98911.00
2022-11-04T06:35:22.898Z,98896.00
2022-11-04T06:37:54.890Z,98899.00
2022-11-04T06:40:24.068Z,98903.00
2022-11-04T06:42:53.134Z,98898.00
2022-11-04T06:45:22.614Z,98897.00
2022-11-04T06:47:51.742Z,98893.00
2022-11-04T06:50:20.836Z,98888.00
2022-11-04T06:52:49.915Z,98889.00
2022-11-04T06:55:19.153Z,98897.00
2022-11-04T06:57:48.284Z,98887.00
2022-11-04T07:00:19.389Z,98878.00
2022-11-04T07:02:48.482Z,98877.00
2022-11-04T07:05:18.395Z,98878.00
2022-11-04T07:07:47.944Z,98880.00
2022-11-04T07:10:18.299Z,98872.00
2022-11-04T07:12:47.707Z,98875.00
2022-11-04T07:15:16.840Z,98870.00
2022-11-04T07:17:45.919Z,98864.00
2022-11-04T07:20:15.098Z,98866.00
2022-11-04T07:22:44.130Z,98864.00
2022-11-04T07:25:13.529Z,98859.00
2022-11-04T07:27:43.269Z,98861.00
2022-11-04T07:30:13.102Z,98854.00
2022-11-04T07:32:42.209Z,98864.00
2022-11-04T07:35:11.708Z,98859.00
2022-11-04T07:37:40.844Z,98850.00
2022-11-04T07:40:11.344Z,98849.00
2022-11-04T07:42:40.667Z,98852.00
2022-11-04T07:45:10.556Z,98848.00
2022-11-04T07:47:39.778Z,98845.00
2022-11-04T07:50:11.193Z,98850.00
2022-11-04T07:52:41.132Z,98849.00
2022-11-04T07:55:11.447Z,98849.00
2022-11-04T07:57:40.727Z,98848.00
2022-11-04T08:00:11.389Z,98845.00
2022-11-04T08:02:40.634Z,98845.00
2022-11-04T08:05:10.511Z,98841.00
2022-11-04T08:07:39.623Z,98838.00
2022-11-04T08:10:11.027Z,98839.00
2022-11-04T08:12:40.252Z,98838.00
2022-11-04T08:15:09.967Z,98843.00
2022-11-04T08:17:39.062Z,98838.00
2022-11-04T08:20:10.674Z,98841.00
2022-11-04T08:22:40.193Z,98833.00
2022-11-04T08:25:12.044Z,98837.00
2022-11-04T08:27:41.344Z,98839.00
2022-11-04T08:30:11.681Z,98838.00
2022-11-04T08:32:43.629Z,98840.00
2022-11-04T08:35:13.029Z,98849.00
2022-11-04T08:37:42.167Z,98846.00
2022-11-04T08:40:12.004Z,98851.00
2022-11-04T08:42:41.129Z,98842.00
2022-11-04T08:45:10.795Z,98848.00
2022-11-04T08:47:41.579Z,98845.00
2022-11-04T08:50:12.445Z,98846.00
2022-11-04T08:52:41.637Z,98843.00
2022-11-04T08:55:11.569Z,98841.00
2022-11-04T08:57:40.818Z,98836.00
2022-11-04T09:00:10.798Z,98845.00
2022-11-04T09:02:41.199Z,98844.00
2022-11-04T09:05:10.840Z,98846.00
2022-11-04T09:07:40.053Z,98845.00
2022-11-04T09:10:10.406Z,98852.00
2022-11-04T09:12:39.801Z,98852.00
2022-11-04T09:15:09.754Z,98851.00
2022-11-04T09:17:39.669Z,98862.00
2022-11-04T09:20:09.856Z,98851.00
2022-11-04T09:22:43.146Z,98857.00
2022-11-04T09:25:14.871Z,98860.00
2022-11-04T09:27:43.937Z,98861.00
2022-11-04T09:30:13.861Z,98857.00
2022-11-04T09:32:43.102Z,98865.00
2022-11-04T09:35:12.852Z,98867.00
2022-11-04T09:37:41.945Z,98865.00
2022-11-04T09:40:20.668Z,98870.00
2022-11-04T09:43:30.503Z,98879.00
2022-11-04T09:46:04.021Z,98873.00
2022-11-04T09:48:43.394Z,98870.00
2022-11-04T09:51:32.537Z,98873.00
2022-11-04T09:54:38.624Z,98883.00
2022-11-04T09:57:19.609Z,98876.00
2022-11-04T09:59:50.513Z,98882.00
2022-11-04T10:02:38.610Z,98876.00
2022-11-04T10:05:48.965Z,98883.00
2022-11-04T10:08:55.381Z,98878.00
2022-11-04T10:11:47.686Z,98881.00
2022-11-04T10:14:50.118Z,98885.00
2022-11-04T10:18:05.281Z,98885.00
2022-11-04T10:21:10.569Z,98888.00
2022-11-04T10:23:46.961Z,98889.00
2022-11-04T10:26:34.636Z,98896.00
2022-11-04T10:29:16.362Z,98905.00
2022-11-04T10:31:49.085Z,98903.00
2022-11-04T10:34:46.577Z,98906.00
2022-11-04T10:37:15.822Z,98903.00
2022-11-04T10:39:48.187Z,98904.00
2022-11-04T10:42:23.117Z,98907.00
2022-11-04T10:44:54.351Z,98909.00
2022-11-04T10:47:51.148Z,98915.00
2022-11-04T10:50:58.660Z,98916.00
2022-11-04T10:53:31.271Z,98921.00
2022-11-04T10:56:27.063Z,98921.00
2022-11-04T10:58:58.561Z,98931.00
2022-11-04T11:01:37.002Z,98928.00
2022-11-04T11:04:10.937Z,98922.00
2022-11-04T11:06:40.815Z,98927.00
2022-11-04T11:09:30.788Z,98937.00
2022-11-04T11:12:48.821Z,98941.00
2022-11-04T11:15:26.509Z,98944.00
2022-11-04T11:18:19.930Z,98949.00
2022-11-04T11:21:26.961Z,98949.00
2022-11-04T11:23:58.395Z,98956.00
2022-11-04T11:26:34.313Z,98958.00
2022-11-04T11:29:07.953Z,98964.00
2022-11-04T11:31:42.656Z,98969.00
2022-11-04T11:34:40.116Z,98975.00
2022-11-04T11:37:26.067Z,98979.00
2022-11-04T11:39:55.317Z,98985.00
2022-11-04T11:42:28.159Z,98986.00
2022-11-04T11:45:01.064Z,98989.00
2022-11-04T11:47:30.655Z,98994.00
2022-11-04T11:50:21.759Z,99002.00
2022-11-04T11:52:53.856Z,99003.00
2022-11-04T11:55:40.883Z,99011.00
2022-11-04T12:01:52.878Z,99020.00
2022-11-04T12:11:00.576Z,99039.00
2022-11-04T12:13:39.793Z,99043.00
2022-11-04T12:16:50.025Z,99049.00
2022-11-04T12:19:46.673Z,99054.00
2022-11-04T12:22:53.425Z,99054.00
2022-11-04T12:25:49.101Z,99058.00
2022-11-04T12:28:44.132Z,99063.00
2022-11-04T12:31:44.073Z,99071.00
2022-11-04T12:34:18.550Z,99078.00
2022-11-04T12:37:10.024Z,99082.00
2022-11-04T12:40:06.131Z,99092.00
2022-11-04T12:43:03.107Z,99092.00
2022-11-04T12:46:11.348Z,99104.00
2022-11-04T12:49:35.502Z,99107.00
2022-11-04T12:52:19.605Z,99107.00
2022-11-04T12:55:43.655Z,99113.00
2022-11-04T12:58:55.676Z,99115.00
2022-11-04T13:01:54.523Z,99118.00
2022-11-04T13:04:37.019Z,99125.00
2022-11-04T13:07:17.260Z,99133.00
2022-11-04T13:10:05.877Z,99133.00
2022-11-04T13:12:45.051Z,99138.00
2022-11-04T13:15:49.571Z,99147.00
2022-11-04T13:18:23.420Z,99147.00
2022-11-04T13:21:05.493Z,99159.00
2022-11-04T13:23:41.745Z,99164.00
2022-11-04T13:26:18.779Z,99170.00
2022-11-04T13:29:17.156Z,99167.00
2022-11-04T13:32:23.630Z,99169.00
2022-11-04T13:35:23.297Z,99163.00
2022-11-04T13:38:05.277Z,99177.00
2022-11-04T13:41:11.447Z,99171.00
2022-11-04T13:44:05.736Z,99184.00
2022-11-04T13:46:37.244Z,99181.00
2022-11-04T13:49:35.171Z,99184.00
2022-11-04T13:52:13.210Z,99187.00
2022-11-04T13:54:53.972Z,99188.00
2022-11-04T13:57:50.290Z,99185.00
2022-11-04T14:00:29.099Z,99187.00
2022-11-04T14:03:23.577Z,99180.00
2022-11-04T14:06:01.491Z,99193.00
2022-11-04T14:08:31.597Z,99199.00
2022-11-04T14:11:06.110Z,99200.00
2022-11-04T14:13:43.542Z,99196.00
2022-11-04T14:16:18.761Z,99201.00
2022-11-04T14:18:51.771Z,99201.00
2022-11-04T14:21:30.317Z,99206.00
2022-11-04T14:24:16.424Z,99206.00
2022-11-04T14:26:51.225Z,99201.00
2022-11-04T14:29:28.758Z,99205.00
2022-11-04T14:32:01.781Z,99197.00
2022-11-04T14:34:38.683Z,99200.00
2022-11-04T14:37:29.999Z,99192.00
2022-11-04T14:40:06.597Z,99196.00
2022-11-04T14:42:52.761Z,99192.00
2022-11-04T14:45:41.370Z,99193.00
2022-11-04T14:48:22.292Z,99191.00
2022-11-04T14:50:55.657Z,99192.00
2022-11-04T14:53:34.988Z,99194.00
2022-11-04T14:56:25.523Z,99188.00
2022-11-04T14:59:05.240Z,99190.00
2022-11-04T15:01:40.143Z,99190.00
2022-11-04T15:04:27.999Z,99186.00
2022-11-04T15:07:05.802Z,99194.00
2022-11-04T15:09:50.005Z,99192.00
2022-11-04T15:12:40.011Z,99193.00
2022-11-04T15:15:35.461Z,99193.00
2022-11-04T15:18:27.166Z,99194.00
2022-11-04T15:21:04.967Z,99193.00
2022-11-04T15:23:43.308Z,99193.00
2022-11-04T15:26:38.855Z,99204.00
2022-11-04T15:29:14.066Z,99208.00
2022-11-04T15:32:00.007Z,99208.00
2022-11-04T15:34:31.933Z,99211.00
2022-11-04T15:37:06.380Z,99211.00
2022-11-04T15:39:49.442Z,99210.00
2022-11-04T15:42:44.089Z,99217.00
2022-11-04T15:45:52.201Z,99223.00
2022-11-04T15:48:38.805Z,99222.00
2022-11-04T15:51:25.795Z,99219.00
2022-11-04T15:54:30.509Z,99215.00
2022-11-04T15:57:13.667Z,99219.00
2022-11-04T16:00:02.997Z,99211.00
2022-11-04T16:02:51.376Z,99213.00
2022-11-04T16:05:30.585Z,99202.00
2022-11-04T16:08:25.363Z,99211.00
2022-11-04T16:11:21.094Z,99207.00
2022-11-04T16:13:50.199Z,99209.00
2022-11-04T16:16:29.666Z,99205.00
2022-11-04T16:19:01.416Z,99198.00
2022-11-04T16:21:36.017Z,99200.00
2022-11-04T16:24:09.767Z,99196.00
2022-11-04T16:26:45.583Z,99199.00
2022-11-04T16:29:29.390Z,99200.00
2022-11-04T16:32:25.864Z,99193.00
2022-11-04T16:35:00.330Z,99197.00
2022-11-04T16:37:31.139Z,99200.00
2022-11-04T16:40:00.365Z,99205.00
2022-11-04T16:42:29.548Z,99196.00
2022-11-04T16:45:04.809Z,99197.00
2022-11-04T16:47:39.921Z,99192.00
2022-11-04T16:50:17.445Z,99197.00
2022-11-04T16:52:46.970Z,99197.00
2022-11-04T16:55:17.028Z,99186.00
2022-11-04T16:57:55.733Z,99192.00
2022-11-04T17:00:27.961Z,99193.00
2022-11-04T17:02:57.188Z,99187.00
2022-11-04T17:05:26.380Z,99184.00
2022-11-04T17:08:00.275Z,99185.00
2022-11-04T17:10:37.227Z,99182.00
2022-11-04T17:13:06.469Z,99183.00
2022-11-04T17:15:35.789Z,99178.00
2022-11-04T17:18:05.144Z,99173.00
2022-11-04T17:20:34.740Z,99175.00
2022-11-04T17:23:03.917Z,99174.00
2022-11-04T17:25:33.125Z,99177.00
2022-11-04T17:28:02.291Z,99172.00
2022-11-04T17:30:31.632Z,99168.00
2022-11-04T17:33:01.081Z,99164.00
2022-11-04T17:35:30.319Z,99162.00
2022-11-04T17:37:59.477Z,99158.00
2022-11-04T17:40:29.008Z,99155.00
2022-11-04T17:43:17.011Z,99150.00
2022-11-04T17:45:46.695Z,99151.00
2022-11-04T17:48:16.389Z,99145.00
2022-11-04T17:50:45.565Z,99147.00
2022-11-04T17:53:15.070Z,99143.00
2022-11-04T17:55:45.206Z,99141.00
2022-11-04T17:58:14.384Z,99135.00
2022-11-04T18:00:44.351Z,99139.00
2022-11-04T18:03:14.004Z,99134.00
2022-11-04T18:05:43.120Z,99137.00
2022-11-04T18:08:12.475Z,99139.00
2022-11-04T18:10:41.622Z,99137.00
2022-11-04T18:13:10.903Z,99130.00
2022-11-04T18:15:40.295Z,99130.00
2022-11-04T18:18:09.365Z,99126.00
2022-11-04T18:20:38.433Z,99122.00
2022-11-04T18:23:07.927Z,99117.00
2022-11-04T18:25:39.638Z,99113.00
2022-11-04T18:28:09.009Z,99115.00
2022-11-04T18:30:42.188Z,99121.00
2022-11-04T18:33:11.555Z,99110.00
2022-11-04T18:35:40.859Z,99110.00
2022-11-04T18:38:09.955Z,99114.00
2022-11-04T18:40:39.081Z,99101.00
2022-11-04T18:43:09.258Z,99106.00
2022-11-04T18:45:38.991Z,99102.00
2022-11-04T18:48:08.512Z,99104.00
2022-11-04T18:50:37.964Z,99104.00
2022-11-04T18:53:07.286Z,99105.00
2022-11-04T18:55:36.536Z,99108.00
2022-11-04T18:58:05.622Z,99104.00
2022-11-04T19:00:35.616Z,99101.00
2022-11-04T19:03:05.617Z,99100.00
2022-11-04T19:05:34.853Z,99096.00
2022-11-04T19:08:04.032Z,99094.00
2022-11-04T19:10:38.666Z,99105.00
2022-11-04T19:13:21.623Z,99095.00
2022-11-04T19:15:51.269Z,99095.00
2022-11-04T19:18:21.398Z,99086.00
2022-11-04T19:20:50.501Z,99087.00
2022-11-04T19:23:19.558Z,99091.00
2022-11-04T19:25:48.686Z,99084.00
2022-11-04T19:28:37.243Z,99088.00
2022-11-04T19:31:08.758Z,99082.00
2022-11-04T19:33:38.356Z,99080.00
2022-11-04T19:36:10.970Z,99075.00
2022-11-04T19:38:40.099Z,99077.00
2022-11-04T19:41:39.309Z,99063.00
2022-11-04T19:44:15.696Z,99069.00
2022-11-04T19:46:45.438Z,99065.00
2022-11-04T19:49:15.228Z,99062.00
2022-11-04T19:51:45.523Z,99061.00
2022-11-04T19:54:15.048Z,99062.00
2022-11-04T19:56:44.119Z,99057.00
2022-11-04T19:59:13.889Z,99057.00
2022-11-04T20:01:43.143Z,99058.00
2022-11-04T20:04:13.433Z,99056.00
2022-11-04T20:06:42.535Z,99051.00
2022-11-04T20:09:13.152Z,99044.00
2022-11-04T20:12:01.472Z,99050.00
2022-11-04T20:14:31.009Z,99054.00
2022-11-04T20:17:00.316Z,99049.00
2022-11-04T20:19:29.383Z,99048.00
2022-11-04T20:21:58.551Z,99054.00
2022-11-04T20:24:27.733Z,99053.00
2022-11-04T20:26:56.838Z,99058.00
2022-11-04T20:29:26.049Z,99061.00
2022-11-04T20:31:55.271Z,99064.00
2022-11-04T20:34:26.590Z,99061.00
2022-11-04T20:36:59.565Z,99064.00
2022-11-04T20:39:28.850Z,99061.00
2022-11-04T20:41:57.905Z,99060.00
2022-11-04T20:44:27.194Z,99059.00
2022-11-04T20:46:56.271Z,99062.00
2022-11-04T20:49:25.413Z,99057.00
2022-11-04T20:51:55.570Z,99063.00
2022-11-04T20:54:25.050Z,99062.00
2022-11-04T20:56:54.249Z,99053.00
2022-11-04T20:59:23.875Z,99063.00
2022-11-04T21:01:53.400Z,99062.00
2022-11-04T21:04:23.328Z,99065.00
2022-11-04T21:06:53.722Z,99066.00
2022-11-04T21:09:23.850Z,99070.00
2022-11-04T21:11:53.075Z,99061.00
2022-11-04T21:14:22.358Z,99072.00
2022-11-04T21:16:51.564Z,99068.00
2022-11-04T21:19:22.885Z,99067.00
2022-11-04T21:21:52.106Z,99078.00
2022-11-04T21:24:21.456Z,99077.00
2022-11-04T21:26:51.229Z,99072.00
2022-11-04T21:29:21.874Z,99074.00
2022-11-04T21:31:51.268Z,99075.00
2022-11-04T21:34:20.468Z,99068.00
2022-11-04T21:36:53.649Z,99073.00
2022-11-04T21:39:23.873Z,99081.00
2022-11-04T21:41:53.029Z,99073.00
2022-11-04T21:44:22.244Z,99067.00
2022-11-04T21:46:52.410Z,99071.00
2022-11-04T21:49:21.848Z,99075.00
2022-11-04T21:51:51.045Z,99074.00
2022-11-04T21:54:20.335Z,99082.00
2022-11-04T21:56:52.096Z,99072.00
2022-11-04T21:59:21.657Z,99084.00
2022-11-04T22:01:50.880Z,99085.00
2022-11-04T22:04:20.047Z,99087.00
2022-11-04T22:06:49.106Z,99098.00
2022-11-04T22:09:18.223Z,99098.00
2022-11-04T22:11:47.366Z,99097.00
2022-11-04T22:14:16.387Z,99106.00
2022-11-04T22:16:45.689Z,99102.00
2022-11-04T22:19:15.343Z,99105.00
2022-11-04T22:21:47.510Z,99103.00
2022-11-04T22:24:20.079Z,99109.00
2022-11-04T22:26:49.290Z,99112.00
2022-11-04T22:29:18.487Z,99116.00
2022-11-04T22:31:47.601Z,99117.00
2022-11-04T22:34:16.808Z,99117.00
2022-11-04T22:36:45.916Z,99120.00
2022-11-04T22:39:17.033Z,99120.00
2022-11-04T22:41:47.241Z,99126.00
2022-11-04T22:44:16.424Z,99132.00
2022-11-04T22:46:45.557Z,99134.00
2022-11-04T22:49:15.798Z,99141.00
2022-11-04T22:51:45.104Z,99134.00
2022-11-04T22:54:14.188Z,99145.00
2022-11-04T22:56:43.451Z,99146.00
2022-11-04T22:59:13.731Z,99142.00
2022-11-04T23:01:43.077Z,99144.00
2022-11-04T23:04:13.225Z,99152.00
2022-11-04T23:06:42.806Z,99159.00
2022-11-04T23:09:14.631Z,99158.00
2022-11-04T23:12:02.085Z,99159.00
2022-11-04T23:14:49.253Z,99165.00
2022-11-04T23:17:39.222Z,99165.00
2022-11-04T23:20:15.929Z,99164.00
2022-11-04T23:23:03.442Z,99169.00
2022-11-04T23:25:32.614Z,99172.00
2022-11-04T23:28:19.923Z,99179.00
2022-11-04T23:30:53.591Z,99181.00
2022-11-04T23:33:42.491Z,99183.00
2022-11-04T23:36:30.153Z,99190.00
2022-11-04T23:38:59.251Z,99187.00
2022-11-04T23:41:46.840Z,99195.00
2022-11-04T23:44:35.736Z,99200.00
2022-11-04T23:47:23.065Z,99209.00
2022-11-04T23:50:10.581Z,99202.00
2022-11-04T23:52:58.011Z,99209.00
2022-11-04T23:55:45.661Z,99217.00
2022-11-04T23:58:32.993Z,99223.00
